sensor_id;sensor_type;location;lat;lon;timestamp;pressure;altitude;pressure_sealevel;temperature;humidity
70103;BME280;57470;50.034;15.256;2022-10-26T00:00:45;99764.38;;;8.81;97.87
70103;BME280;57470;50.034;15.256;2022-10-26T00:03:11;99765.72;;;8.88;97.53
70103;BME280;57470;50.034;15.256;2022-10-26T00:05:36;99762.31;;;8.86;97.18
70103;BME280;57470;50.034;15.256;2022-10-26T00:08:02;99764.38;;;8.81;97.32
70103;BME280;57470;50.034;15.256;2022-10-26T00:10:28;99774.56;;;8.73;97.19
70103;BME280;57470;50.034;15.256;2022-10-26T00:12:53;99768.13;;;8.77;98.13
70103;BME280;57470;50.034;15.256;2022-10-26T00:15:19;99769.25;;;8.73;97.67
70103;BME280;57470;50.034;15.256;2022-10-26T00:17:46;99772.59;;;8.77;97.47
70103;BME280;57470;50.034;15.256;2022-10-26T00:20:13;99768.25;;;8.76;98.22
70103;BME280;57470;50.034;15.256;2022-10-26T00:22:38;99770.47;;;8.68;98.03
70103;BME280;57470;50.034;15.256;2022-10-26T00:25:05;99770.53;;;8.66;99.20
70103;BME280;57470;50.034;15.256;2022-10-26T00:27:31;99777.13;;;8.75;99.51
70103;BME280;57470;50.034;15.256;2022-10-26T00:29:59;99766.75;;;8.70;98.66
70103;BME280;57470;50.034;15.256;2022-10-26T00:32:24;99775.06;;;8.64;98.57
70103;BME280;57470;50.034;15.256;2022-10-26T00:34:50;99769.50;;;8.69;98.08
70103;BME280;57470;50.034;15.256;2022-10-26T00:37:15;99777.22;;;8.57;98.22
70103;BME280;57470;50.034;15.256;2022-10-26T00:39:40;99783.03;;;8.64;99.11
70103;BME280;57470;50.034;15.256;2022-10-26T00:42:11;99773.34;;;8.63;97.70
70103;BME280;57470;50.034;15.256;2022-10-26T00:48:03;99781.22;;;8.64;98.17
70103;BME280;57470;50.034;15.256;2022-10-26T00:50:34;99780.09;;;8.69;97.54
70103;BME280;57470;50.034;15.256;2022-10-26T00:53:02;99786.78;;;8.60;98.00
70103;BME280;57470;50.034;15.256;2022-10-26T00:55:32;99782.16;;;8.63;97.95
70103;BME280;57470;50.034;15.256;2022-10-26T00:58:00;99779.59;;;8.46;98.98
70103;BME280;57470;50.034;15.256;2022-10-26T01:00:27;99780.31;;;8.50;98.23
70103;BME280;57470;50.034;15.256;2022-10-26T01:02:54;99776.69;;;8.51;98.40
70103;BME280;57470;50.034;15.256;2022-10-26T01:05:20;99784.56;;;8.52;98.43
70103;BME280;57470;50.034;15.256;2022-10-26T01:07:46;99782.31;;;8.45;98.85
70103;BME280;57470;50.034;15.256;2022-10-26T01:10:12;99777.53;;;8.51;98.28
70103;BME280;57470;50.034;15.256;2022-10-26T01:12:41;99773.28;;;8.49;98.60
70103;BME280;57470;50.034;15.256;2022-10-26T01:15:07;99781.13;;;8.50;98.24
70103;BME280;57470;50.034;15.256;2022-10-26T01:20:58;99766.41;;;8.45;97.90
70103;BME280;57470;50.034;15.256;2022-10-26T01:23:33;99771.81;;;8.43;97.82
70103;BME280;57470;50.034;15.256;2022-10-26T01:31:27;99771.13;;;8.40;97.15
70103;BME280;57470;50.034;15.256;2022-10-26T01:34:04;99771.22;;;8.38;97.91
70103;BME280;57470;50.034;15.256;2022-10-26T01:36:34;99766.94;;;8.03;99.57
70103;BME280;57470;50.034;15.256;2022-10-26T01:39:15;99770.63;;;8.16;100.00
70103;BME280;57470;50.034;15.256;2022-10-26T01:44:29;99767.56;;;8.23;99.38
70103;BME280;57470;50.034;15.256;2022-10-26T01:46:58;99758.50;;;8.27;99.50
70103;BME280;57470;50.034;15.256;2022-10-26T01:49:31;99764.81;;;8.25;99.11
70103;BME280;57470;50.034;15.256;2022-10-26T01:52:00;99766.78;;;8.39;100.00
70103;BME280;57470;50.034;15.256;2022-10-26T01:54:26;99766.84;;;8.37;100.00
70103;BME280;57470;50.034;15.256;2022-10-26T01:56:59;99758.34;;;8.31;100.00
70103;BME280;57470;50.034;15.256;2022-10-26T02:12:54;99755.63;;;8.32;98.49
70103;BME280;57470;50.034;15.256;2022-10-26T02:18:23;99756.28;;;8.20;98.55
70103;BME280;57470;50.034;15.256;2022-10-26T02:20:55;99758.59;;;8.26;98.73
70103;BME280;57470;50.034;15.256;2022-10-26T02:23:24;99753.28;;;8.26;98.43
70103;BME280;57470;50.034;15.256;2022-10-26T02:25:55;99754.94;;;8.28;98.57
70103;BME280;57470;50.034;15.256;2022-10-26T02:28:27;99751.34;;;8.29;98.25
70103;BME280;57470;50.034;15.256;2022-10-26T02:30:57;99759.16;;;8.15;98.66
70103;BME280;57470;50.034;15.256;2022-10-26T02:33:26;99748.34;;;8.20;98.37
70103;BME280;57470;50.034;15.256;2022-10-26T02:35:54;99751.84;;;8.20;98.67
70103;BME280;57470;50.034;15.256;2022-10-26T02:38:23;99756.44;;;8.17;98.52
70103;BME280;57470;50.034;15.256;2022-10-26T02:40:50;99757.06;;;8.22;99.06
70103;BME280;57470;50.034;15.256;2022-10-26T02:43:17;99756.69;;;8.12;98.68
70103;BME280;57470;50.034;15.256;2022-10-26T02:45:53;99763.53;;;8.16;98.61
70103;BME280;57470;50.034;15.256;2022-10-26T02:48:19;99755.66;;;8.15;98.28
70103;BME280;57470;50.034;15.256;2022-10-26T02:53:23;99757.13;;;8.05;98.22
70103;BME280;57470;50.034;15.256;2022-10-26T02:55:50;99755.16;;;8.08;97.67
70103;BME280;57470;50.034;15.256;2022-10-26T02:58:28;99754.53;;;8.03;97.53
70103;BME280;57470;50.034;15.256;2022-10-26T03:00:56;99748.81;;;7.95;97.80
70103;BME280;57470;50.034;15.256;2022-10-26T03:03:22;99750.19;;;8.02;97.43
70103;BME280;57470;50.034;15.256;2022-10-26T03:05:48;99756.34;;;8.03;97.74
70103;BME280;57470;50.034;15.256;2022-10-26T03:08:13;99755.03;;;7.94;97.74
70103;BME280;57470;50.034;15.256;2022-10-26T03:10:41;99746.94;;;7.80;98.89
70103;BME280;57470;50.034;15.256;2022-10-26T03:13:08;99750.03;;;7.88;98.28
70103;BME280;57470;50.034;15.256;2022-10-26T03:15:33;99752.38;;;7.94;98.73
70103;BME280;57470;50.034;15.256;2022-10-26T03:17:59;99755.19;;;7.91;98.34
70103;BME280;57470;50.034;15.256;2022-10-26T03:20:24;99755.13;;;7.93;98.58
70103;BME280;57470;50.034;15.256;2022-10-26T03:22:49;99753.81;;;7.84;98.38
70103;BME280;57470;50.034;15.256;2022-10-26T03:25:15;99758.47;;;7.79;99.17
70103;BME280;57470;50.034;15.256;2022-10-26T03:27:41;99761.13;;;7.79;99.61
70103;BME280;57470;50.034;15.256;2022-10-26T03:30:07;99754.78;;;7.66;100.00
70103;BME280;57470;50.034;15.256;2022-10-26T03:32:33;99758.13;;;7.69;100.00
70103;BME280;57470;50.034;15.256;2022-10-26T03:34:58;99757.28;;;7.51;100.00
70103;BME280;57470;50.034;15.256;2022-10-26T03:37:23;99755.25;;;7.57;100.00
70103;BME280;57470;50.034;15.256;2022-10-26T03:39:49;99751.59;;;7.59;100.00
70103;BME280;57470;50.034;15.256;2022-10-26T03:42:14;99764.59;;;7.46;100.00
70103;BME280;57470;50.034;15.256;2022-10-26T03:44:39;99755.34;;;7.38;100.00
70103;BME280;57470;50.034;15.256;2022-10-26T03:47:05;99758.84;;;7.38;100.00
70103;BME280;57470;50.034;15.256;2022-10-26T03:49:30;99765.59;;;7.61;100.00
70103;BME280;57470;50.034;15.256;2022-10-26T03:51:55;99760.31;;;7.78;100.00
70103;BME280;57470;50.034;15.256;2022-10-26T03:54:21;99761.72;;;7.68;100.00
70103;BME280;57470;50.034;15.256;2022-10-26T03:56:46;99760.66;;;7.71;100.00
70103;BME280;57470;50.034;15.256;2022-10-26T03:59:13;99756.50;;;7.67;100.00
70103;BME280;57470;50.034;15.256;2022-10-26T04:01:38;99760.13;;;7.81;100.00
70103;BME280;57470;50.034;15.256;2022-10-26T04:04:04;99766.41;;;7.79;100.00
70103;BME280;57470;50.034;15.256;2022-10-26T04:06:29;99769.44;;;7.88;100.00
70103;BME280;57470;50.034;15.256;2022-10-26T04:08:55;99765.78;;;7.91;100.00
70103;BME280;57470;50.034;15.256;2022-10-26T04:11:26;99755.03;;;7.94;100.00
70103;BME280;57470;50.034;15.256;2022-10-26T04:13:51;99763.53;;;7.83;100.00
70103;BME280;57470;50.034;15.256;2022-10-26T04:16:16;99759.09;;;7.84;100.00
70103;BME280;57470;50.034;15.256;2022-10-26T04:18:42;99758.47;;;7.79;100.00
70103;BME280;57470;50.034;15.256;2022-10-26T04:21:07;99763.72;;;7.46;100.00
70103;BME280;57470;50.034;15.256;2022-10-26T04:23:33;99766.06;;;7.52;100.00
70103;BME280;57470;50.034;15.256;2022-10-26T04:25:58;99768.25;;;7.44;100.00
70103;BME280;57470;50.034;15.256;2022-10-26T04:28:23;99771.94;;;7.41;100.00
70103;BME280;57470;50.034;15.256;2022-10-26T04:30:49;99767.25;;;7.29;100.00
70103;BME280;57470;50.034;15.256;2022-10-26T04:33:14;99773.16;;;7.34;100.00
70103;BME280;57470;50.034;15.256;2022-10-26T04:35:39;99775.44;;;7.25;100.00
70103;BME280;57470;50.034;15.256;2022-10-26T04:38:06;99777.34;;;7.21;100.00
70103;BME280;57470;50.034;15.256;2022-10-26T04:40:32;99776.19;;;7.27;100.00
70103;BME280;57470;50.034;15.256;2022-10-26T04:42:58;99763.28;;;7.21;100.00
70103;BME280;57470;50.034;15.256;2022-10-26T04:45:24;99773.47;;;7.28;100.00
70103;BME280;57470;50.034;15.256;2022-10-26T04:48:03;99771.47;;;7.50;100.00
70103;BME280;57470;50.034;15.256;2022-10-26T04:50:29;99764.19;;;7.54;100.00
70103;BME280;57470;50.034;15.256;2022-10-26T04:52:54;99771.28;;;7.36;100.00
70103;BME280;57470;50.034;15.256;2022-10-26T04:55:20;99764.28;;;7.35;100.00
70103;BME280;57470;50.034;15.256;2022-10-26T04:57:45;99772.84;;;7.23;100.00
70103;BME280;57470;50.034;15.256;2022-10-26T05:00:11;99783.88;;;7.14;100.00
70103;BME280;57470;50.034;15.256;2022-10-26T05:02:36;99777.28;;;7.23;100.00
70103;BME280;57470;50.034;15.256;2022-10-26T05:05:02;99786.69;;;7.28;100.00
70103;BME280;57470;50.034;15.256;2022-10-26T05:07:27;99779.63;;;7.46;100.00
70103;BME280;57470;50.034;15.256;2022-10-26T05:09:53;99782.50;;;7.59;100.00
70103;BME280;57470;50.034;15.256;2022-10-26T05:12:18;99782.66;;;7.56;100.00
70103;BME280;57470;50.034;15.256;2022-10-26T05:14:43;99787.63;;;7.44;100.00
70103;BME280;57470;50.034;15.256;2022-10-26T05:17:09;99792.13;;;7.25;100.00
70103;BME280;57470;50.034;15.256;2022-10-26T05:19:34;99782.50;;;7.41;100.00
70103;BME280;57470;50.034;15.256;2022-10-26T05:21:59;99788.25;;;7.49;100.00
70103;BME280;57470;50.034;15.256;2022-10-26T05:24:25;99789.19;;;7.48;100.00
70103;BME280;57470;50.034;15.256;2022-10-26T05:26:50;99789.13;;;7.50;100.00
70103;BME280;57470;50.034;15.256;2022-10-26T05:29:16;99786.47;;;7.15;100.00
70103;BME280;57470;50.034;15.256;2022-10-26T05:31:41;99799.03;;;7.10;100.00
70103;BME280;57470;50.034;15.256;2022-10-26T05:34:06;99794.50;;;6.95;100.00
70103;BME280;57470;50.034;15.256;2022-10-26T05:36:32;99797.53;;;7.24;100.00
70103;BME280;57470;50.034;15.256;2022-10-26T05:38:58;99805.63;;;7.02;100.00
70103;BME280;57470;50.034;15.256;2022-10-26T05:41:24;99799.94;;;6.92;100.00
70103;BME280;57470;50.034;15.256;2022-10-26T05:43:49;99797.03;;;6.80;100.00
70103;BME280;57470;50.034;15.256;2022-10-26T05:46:14;99801.38;;;6.81;100.00
70103;BME280;57470;50.034;15.256;2022-10-26T05:48:40;99800.81;;;6.74;100.00
70103;BME280;57470;50.034;15.256;2022-10-26T05:51:05;99802.59;;;6.73;100.00
70103;BME280;57470;50.034;15.256;2022-10-26T05:53:31;99806.81;;;6.96;100.00
70103;BME280;57470;50.034;15.256;2022-10-26T05:55:57;99809.75;;;7.07;100.00
70103;BME280;57470;50.034;15.256;2022-10-26T05:58:23;99810.78;;;7.05;100.00
70103;BME280;57470;50.034;15.256;2022-10-26T06:07:00;99806.78;;;7.49;100.00
70103;BME280;57470;50.034;15.256;2022-10-26T06:09:26;99808.13;;;7.41;100.00
70103;BME280;57470;50.034;15.256;2022-10-26T06:11:52;99810.97;;;7.36;100.00
70103;BME280;57470;50.034;15.256;2022-10-26T06:14:18;99807.47;;;7.70;100.00
70103;BME280;57470;50.034;15.256;2022-10-26T06:17:27;99809.50;;;7.82;100.00
70103;BME280;57470;50.034;15.256;2022-10-26T06:22:38;99822.97;;;7.95;100.00
70103;BME280;57470;50.034;15.256;2022-10-26T06:25:41;99814.25;;;7.76;100.00
70103;BME280;57470;50.034;15.256;2022-10-26T06:28:36;99825.31;;;7.67;100.00
70103;BME280;57470;50.034;15.256;2022-10-26T06:31:04;99819.66;;;8.07;100.00
70103;BME280;57470;50.034;15.256;2022-10-26T06:33:30;99824.69;;;8.29;100.00
70103;BME280;57470;50.034;15.256;2022-10-26T06:38:37;99827.19;;;8.15;100.00
70103;BME280;57470;50.034;15.256;2022-10-26T06:41:05;99833.25;;;8.34;100.00
70103;BME280;57470;50.034;15.256;2022-10-26T06:43:33;99832.72;;;8.27;100.00
70103;BME280;57470;50.034;15.256;2022-10-26T06:48:46;99838.69;;;8.95;100.00
70103;BME280;57470;50.034;15.256;2022-10-26T06:51:14;99839.72;;;9.24;100.00
70103;BME280;57470;50.034;15.256;2022-10-26T06:53:53;99838.59;;;10.18;100.00
70103;BME280;57470;50.034;15.256;2022-10-26T06:56:21;99840.50;;;10.44;98.53
70103;BME280;57470;50.034;15.256;2022-10-26T06:58:49;99839.13;;;9.19;100.00
70103;BME280;57470;50.034;15.256;2022-10-26T07:01:17;99831.69;;;9.10;100.00
70103;BME280;57470;50.034;15.256;2022-10-26T07:03:42;99843.25;;;9.85;100.00
70103;BME280;57470;50.034;15.256;2022-10-26T07:06:08;99837.44;;;9.78;99.58
70103;BME280;57470;50.034;15.256;2022-10-26T07:08:34;99839.59;;;9.41;100.00
70103;BME280;57470;50.034;15.256;2022-10-26T07:10:59;99841.72;;;9.51;100.00
70103;BME280;57470;50.034;15.256;2022-10-26T07:13:25;99834.28;;;9.57;100.00
70103;BME280;57470;50.034;15.256;2022-10-26T07:15:50;99840.16;;;9.17;100.00
70103;BME280;57470;50.034;15.256;2022-10-26T07:18:16;99848.50;;;9.40;100.00
70103;BME280;57470;50.034;15.256;2022-10-26T07:20:41;99844.47;;;9.49;100.00
70103;BME280;57470;50.034;15.256;2022-10-26T07:23:08;99845.63;;;9.14;100.00
70103;BME280;57470;50.034;15.256;2022-10-26T07:25:35;99842.25;;;9.57;100.00
70103;BME280;57470;50.034;15.256;2022-10-26T07:28:05;99842.28;;;9.26;100.00
70103;BME280;57470;50.034;15.256;2022-10-26T07:30:30;99845.81;;;9.86;100.00
70103;BME280;57470;50.034;15.256;2022-10-26T07:33:05;99854.56;;;10.02;100.00
70103;BME280;57470;50.034;15.256;2022-10-26T07:35:32;99851.75;;;9.75;100.00
70103;BME280;57470;50.034;15.256;2022-10-26T07:37:58;99860.31;;;10.10;100.00
70103;BME280;57470;50.034;15.256;2022-10-26T07:40:24;99854.47;;;10.04;100.00
70103;BME280;57470;50.034;15.256;2022-10-26T07:42:50;99854.16;;;10.24;100.00
70103;BME280;57470;50.034;15.256;2022-10-26T07:45:15;99857.59;;;10.26;100.00
70103;BME280;57470;50.034;15.256;2022-10-26T07:47:41;99858.50;;;10.11;100.00
70103;BME280;57470;50.034;15.256;2022-10-26T07:50:06;99859.22;;;10.29;100.00
70103;BME280;57470;50.034;15.256;2022-10-26T07:52:32;99857.91;;;10.64;100.00
70103;BME280;57470;50.034;15.256;2022-10-26T07:55:01;99856.03;;;10.93;98.55
70103;BME280;57470;50.034;15.256;2022-10-26T07:57:26;99861.34;;;11.07;99.34
70103;BME280;57470;50.034;15.256;2022-10-26T07:59:51;99860.34;;;11.22;98.35
70103;BME280;57470;50.034;15.256;2022-10-26T08:02:17;99857.31;;;11.68;96.83
70103;BME280;57470;50.034;15.256;2022-10-26T08:04:43;99861.25;;;11.62;95.50
70103;BME280;57470;50.034;15.256;2022-10-26T08:07:08;99854.94;;;11.90;95.65
70103;BME280;57470;50.034;15.256;2022-10-26T08:09:33;99853.25;;;11.89;95.44
70103;BME280;57470;50.034;15.256;2022-10-26T08:11:59;99851.97;;;11.95;94.27
70103;BME280;57470;50.034;15.256;2022-10-26T08:14:24;99858.25;;;11.67;94.21
70103;BME280;57470;50.034;15.256;2022-10-26T08:16:50;99856.69;;;12.17;95.55
70103;BME280;57470;50.034;15.256;2022-10-26T08:19:17;99846.97;;;12.16;93.77
70103;BME280;57470;50.034;15.256;2022-10-26T08:21:42;99856.91;;;12.39;93.79
70103;BME280;57470;50.034;15.256;2022-10-26T08:24:08;99861.16;;;12.42;93.69
70103;BME280;57470;50.034;15.256;2022-10-26T08:26:33;99863.28;;;12.49;93.69
70103;BME280;57470;50.034;15.256;2022-10-26T08:28:58;99870.13;;;12.28;92.66
70103;BME280;57470;50.034;15.256;2022-10-26T08:31:24;99871.41;;;12.60;93.25
70103;BME280;57470;50.034;15.256;2022-10-26T08:33:49;99873.47;;;12.93;92.18
70103;BME280;57470;50.034;15.256;2022-10-26T08:36:16;99871.31;;;12.98;90.67
70103;BME280;57470;50.034;15.256;2022-10-26T08:38:46;99865.28;;;12.71;92.09
70103;BME280;57470;50.034;15.256;2022-10-26T08:41:13;99869.66;;;13.34;91.65
70103;BME280;57470;50.034;15.256;2022-10-26T08:46:16;99871.38;;;12.73;92.87
70103;BME280;57470;50.034;15.256;2022-10-26T08:48:54;99871.16;;;13.25;92.95
70103;BME280;57470;50.034;15.256;2022-10-26T08:51:31;99868.41;;;13.74;89.99
70103;BME280;57470;50.034;15.256;2022-10-26T08:54:09;99869.41;;;13.61;88.27
70103;BME280;57470;50.034;15.256;2022-10-26T08:56:43;99873.09;;;13.60;88.96
70103;BME280;57470;50.034;15.256;2022-10-26T09:01:54;99875.88;;;13.93;88.91
70103;BME280;57470;50.034;15.256;2022-10-26T09:04:25;99878.41;;;14.30;86.89
70103;BME280;57470;50.034;15.256;2022-10-26T09:18:11;99877.00;;;14.59;87.68
70103;BME280;57470;50.034;15.256;2022-10-26T09:20:46;99882.88;;;14.86;87.36
70103;BME280;57470;50.034;15.256;2022-10-26T09:25:58;99877.38;;;14.88;86.56
70103;BME280;57470;50.034;15.256;2022-10-26T09:28:26;99881.03;;;14.87;85.67
70103;BME280;57470;50.034;15.256;2022-10-26T09:30:52;99879.09;;;15.00;85.58
70103;BME280;57470;50.034;15.256;2022-10-26T09:33:24;99885.69;;;14.85;84.38
70103;BME280;57470;50.034;15.256;2022-10-26T09:36:04;99889.19;;;14.96;84.42
70103;BME280;57470;50.034;15.256;2022-10-26T09:38:39;99891.75;;;15.09;86.57
70103;BME280;57470;50.034;15.256;2022-10-26T09:44:06;99881.78;;;15.11;84.88
70103;BME280;57470;50.034;15.256;2022-10-26T09:49:22;99887.00;;;14.90;83.99
70103;BME280;57470;50.034;15.256;2022-10-26T09:51:54;99894.78;;;15.05;85.90
70103;BME280;57470;50.034;15.256;2022-10-26T09:54:20;99896.03;;;14.89;84.76
70103;BME280;57470;50.034;15.256;2022-10-26T09:56:52;99898.75;;;15.55;84.67
70103;BME280;57470;50.034;15.256;2022-10-26T09:59:21;99896.47;;;15.28;84.87
70103;BME280;57470;50.034;15.256;2022-10-26T10:01:48;99891.25;;;15.26;83.26
70103;BME280;57470;50.034;15.256;2022-10-26T10:06:43;99888.69;;;15.79;83.49
70103;BME280;57470;50.034;15.256;2022-10-26T10:09:17;99893.59;;;15.74;84.43
70103;BME280;57470;50.034;15.256;2022-10-26T10:11:54;99893.69;;;16.04;83.02
70103;BME280;57470;50.034;15.256;2022-10-26T10:16:54;99897.84;;;16.71;82.70
70103;BME280;57470;50.034;15.256;2022-10-26T10:19:22;99896.66;;;16.94;80.07
70103;BME280;57470;50.034;15.256;2022-10-26T10:21:50;99895.00;;;17.03;79.77
70103;BME280;57470;50.034;15.256;2022-10-26T10:24:30;99897.97;;;17.09;80.09
70103;BME280;57470;50.034;15.256;2022-10-26T10:27:03;99891.91;;;16.77;79.13
70103;BME280;57470;50.034;15.256;2022-10-26T10:29:33;99893.66;;;16.87;79.21
70103;BME280;57470;50.034;15.256;2022-10-26T10:32:04;99891.38;;;16.83;79.51
70103;BME280;57470;50.034;15.256;2022-10-26T10:34:30;99893.69;;;16.04;82.82
70103;BME280;57470;50.034;15.256;2022-10-26T10:36:56;99887.53;;;16.13;82.71
70103;BME280;57470;50.034;15.256;2022-10-26T10:39:35;99885.53;;;16.27;81.67
70103;BME280;57470;50.034;15.256;2022-10-26T10:42:03;99874.72;;;16.17;82.32
70103;BME280;57470;50.034;15.256;2022-10-26T10:44:31;99875.97;;;16.85;81.69
70103;BME280;57470;50.034;15.256;2022-10-26T10:47:03;99874.25;;;16.84;81.49
70103;BME280;57470;50.034;15.256;2022-10-26T10:49:30;99871.56;;;16.54;82.87
70103;BME280;57470;50.034;15.256;2022-10-26T10:51:56;99879.69;;;16.94;81.57
70103;BME280;57470;50.034;15.256;2022-10-26T10:54:33;99875.34;;;16.51;81.50
70103;BME280;57470;50.034;15.256;2022-10-26T10:57:11;99878.94;;;16.82;82.71
70103;BME280;57470;50.034;15.256;2022-10-26T11:08:02;99872.31;;;17.45;80.21
70103;BME280;57470;50.034;15.256;2022-10-26T11:10:34;99869.28;;;17.10;78.59
70103;BME280;57470;50.034;15.256;2022-10-26T11:13:25;99864.66;;;17.31;79.54
70103;BME280;57470;50.034;15.256;2022-10-26T11:15:59;99869.94;;;17.42;79.00
70103;BME280;57470;50.034;15.256;2022-10-26T11:18:32;99867.09;;;16.94;78.77
70103;BME280;57470;50.034;15.256;2022-10-26T11:21:20;99872.03;;;16.89;79.06
70103;BME280;57470;50.034;15.256;2022-10-26T11:29:22;99863.28;;;17.56;79.30
70103;BME280;57470;50.034;15.256;2022-10-26T11:32:00;99866.59;;;17.69;78.61
70103;BME280;57470;50.034;15.256;2022-10-26T11:37:10;99863.72;;;17.61;78.80
70103;BME280;57470;50.034;15.256;2022-10-26T11:39:56;99865.13;;;16.96;79.03
70103;BME280;57470;50.034;15.256;2022-10-26T11:42:36;99854.75;;;17.32;79.50
70103;BME280;57470;50.034;15.256;2022-10-26T11:45:18;99861.59;;;17.55;79.00
70103;BME280;57470;50.034;15.256;2022-10-26T11:47:59;99864.31;;;17.84;78.42
70103;BME280;57470;50.034;15.256;2022-10-26T11:50:32;99865.31;;;17.83;79.31
70103;BME280;57470;50.034;15.256;2022-10-26T11:53:11;99862.06;;;17.89;77.82
70103;BME280;57470;50.034;15.256;2022-10-26T11:55:39;99862.75;;;18.10;77.33
70103;BME280;57470;50.034;15.256;2022-10-26T11:58:07;99857.94;;;17.66;78.71
70103;BME280;57470;50.034;15.256;2022-10-26T12:00:46;99864.19;;;17.95;77.66
70103;BME280;57470;50.034;15.256;2022-10-26T12:03:17;99865.59;;;18.09;77.09
70103;BME280;57470;50.034;15.256;2022-10-26T12:05:49;99866.28;;;18.11;77.28
70103;BME280;57470;50.034;15.256;2022-10-26T12:08:22;99867.03;;;17.84;77.67
70103;BME280;57470;50.034;15.256;2022-10-26T12:10:55;99852.28;;;18.07;79.16
70103;BME280;57470;50.034;15.256;2022-10-26T12:13:46;99852.97;;;17.99;76.43
70103;BME280;57470;50.034;15.256;2022-10-26T12:16:23;99845.75;;;18.10;77.88
70103;BME280;57470;50.034;15.256;2022-10-26T12:18:57;99853.41;;;18.05;78.61
70103;BME280;57470;50.034;15.256;2022-10-26T12:21:26;99852.84;;;17.72;77.99
70103;BME280;57470;50.034;15.256;2022-10-26T12:24:01;99853.69;;;17.82;78.94
70103;BME280;57470;50.034;15.256;2022-10-26T12:41:57;99850.00;;;16.95;80.56
70103;BME280;57470;50.034;15.256;2022-10-26T12:52:47;99851.00;;;17.04;80.07
70103;BME280;57470;50.034;15.256;2022-10-26T13:00:34;99846.53;;;17.23;79.04
70103;BME280;57470;50.034;15.256;2022-10-26T13:08:46;99855.53;;;17.91;79.09
70103;BME280;57470;50.034;15.256;2022-10-26T13:11:17;99859.66;;;18.15;76.72
70103;BME280;57470;50.034;15.256;2022-10-26T13:13:44;99860.06;;;18.20;75.53
70103;BME280;57470;50.034;15.256;2022-10-26T13:16:16;99853.13;;;18.08;75.90
70103;BME280;57470;50.034;15.256;2022-10-26T13:18:43;99856.50;;;18.19;77.01
70103;BME280;57470;50.034;15.256;2022-10-26T13:21:11;99853.28;;;17.77;78.14
70103;BME280;57470;50.034;15.256;2022-10-26T13:23:45;99857.81;;;18.06;76.63
70103;BME280;57470;50.034;15.256;2022-10-26T13:26:16;99855.53;;;18.01;76.68
70103;BME280;57470;50.034;15.256;2022-10-26T13:28:46;99863.47;;;18.12;79.04
70103;BME280;57470;50.034;15.256;2022-10-26T13:33:45;99867.00;;;18.13;77.34
70103;BME280;57470;50.034;15.256;2022-10-26T13:38:46;99865.03;;;18.15;78.08
70103;BME280;57470;50.034;15.256;2022-10-26T13:41:25;99872.81;;;18.18;77.19
70103;BME280;57470;50.034;15.256;2022-10-26T13:43:53;99874.09;;;18.14;78.19
70103;BME280;57470;50.034;15.256;2022-10-26T13:46:25;99868.28;;;18.09;78.74
70103;BME280;57470;50.034;15.256;2022-10-26T13:48:53;99874.38;;;18.11;79.17
70103;BME280;57470;50.034;15.256;2022-10-26T13:51:36;99878.19;;;18.18;79.16
70103;BME280;57470;50.034;15.256;2022-10-26T13:56:44;99874.09;;;18.04;79.74
70103;BME280;57470;50.034;15.256;2022-10-26T13:59:12;99874.50;;;18.09;80.19
70103;BME280;57470;50.034;15.256;2022-10-26T14:01:38;99876.06;;;18.12;79.44
70103;BME280;57470;50.034;15.256;2022-10-26T14:04:18;99885.59;;;17.87;80.40
70103;BME280;57470;50.034;15.256;2022-10-26T14:06:50;99880.91;;;17.89;80.91
70103;BME280;57470;50.034;15.256;2022-10-26T14:09:17;99885.31;;;17.80;81.25
70103;BME280;57470;50.034;15.256;2022-10-26T14:14:34;99889.47;;;17.54;83.05
70103;BME280;57470;50.034;15.256;2022-10-26T14:17:02;99886.09;;;17.61;82.67
70103;BME280;57470;50.034;15.256;2022-10-26T14:21:54;99883.81;;;17.57;82.41
70103;BME280;57470;50.034;15.256;2022-10-26T14:24:28;99886.63;;;17.46;82.36
70103;BME280;57470;50.034;15.256;2022-10-26T14:26:54;99881.66;;;17.32;83.02
70103;BME280;57470;50.034;15.256;2022-10-26T14:29:21;99882.53;;;17.42;82.88
70103;BME280;57470;50.034;15.256;2022-10-26T14:31:48;99884.09;;;17.44;82.62
70103;BME280;57470;50.034;15.256;2022-10-26T14:34:15;99882.06;;;17.37;83.07
70103;BME280;57470;50.034;15.256;2022-10-26T14:36:45;99886.34;;;17.39;83.42
70103;BME280;57470;50.034;15.256;2022-10-26T14:39:28;99876.03;;;17.44;82.85
70103;BME280;57470;50.034;15.256;2022-10-26T14:41:55;99879.22;;;17.29;83.56
70103;BME280;57470;50.034;15.256;2022-10-26T14:44:23;99886.88;;;17.23;83.95
70103;BME280;57470;50.034;15.256;2022-10-26T14:46:49;99891.34;;;17.13;84.65
70103;BME280;57470;50.034;15.256;2022-10-26T14:49:20;99895.50;;;17.17;84.34
70103;BME280;57470;50.034;15.256;2022-10-26T14:51:47;99889.09;;;17.09;85.41
70103;BME280;57470;50.034;15.256;2022-10-26T14:54:24;99895.88;;;17.13;84.40
70103;BME280;57470;50.034;15.256;2022-10-26T14:56:50;99898.69;;;17.11;84.50
70103;BME280;57470;50.034;15.256;2022-10-26T14:59:29;99898.88;;;17.19;83.89
70103;BME280;57470;50.034;15.256;2022-10-26T15:04:37;99895.00;;;17.03;85.25
70103;BME280;57470;50.034;15.256;2022-10-26T15:09:41;99900.19;;;16.95;85.99
70103;BME280;57470;50.034;15.256;2022-10-26T15:12:33;99901.84;;;16.86;86.35
70103;BME280;57470;50.034;15.256;2022-10-26T15:17:49;99909.94;;;16.65;87.51
70103;BME280;57470;50.034;15.256;2022-10-26T15:20:21;99917.44;;;16.62;88.41
70103;BME280;57470;50.034;15.256;2022-10-26T15:22:55;99914.75;;;16.62;87.91
70103;BME280;57470;50.034;15.256;2022-10-26T15:25:24;99911.44;;;16.58;87.58
70103;BME280;57470;50.034;15.256;2022-10-26T15:27:51;99925.28;;;16.54;88.41
70103;BME280;57470;50.034;15.256;2022-10-26T15:32:44;99922.41;;;16.45;89.55
70103;BME280;57470;50.034;15.256;2022-10-26T15:37:36;99920.94;;;16.41;89.43